TimeEDT,TemperatureF,Dew PointF,Humidity,Sea Level PressureIn,VisibilityMPH,Wind Direction,Wind SpeedMPH,Gust SpeedMPH,PrecipitationIn,Events,Conditions,WindDirDegrees,DateUTC
1:53 AM,82.9,77.0,82,30.01,10.0,Calm,Calm,-,N/A,,Clear,0,2013-08-16 05:53:00
2:53 AM,82.0,77.0,85,30.01,10.0,East,3.5,-,N/A,,Scattered Clouds,80,2013-08-16 06:53:00
3:53 AM,82.9,77.0,82,30.00,10.0,East,10.4,-,N/A,,Clear,100,2013-08-16 07:53:00
4:53 AM,81.0,75.9,85,30.00,10.0,SE,13.8,20.7,0.00,Rain,Light Rain,140,2013-08-16 08:53:00
5:53 AM,81.0,75.9,85,30.00,10.0,ESE,11.5,-,0.00,,Clear,110,2013-08-16 09:53:00
6:53 AM,82.0,77.0,85,30.00,10.0,ESE,9.2,-,N/A,,Clear,110,2013-08-16 10:53:00
7:53 AM,82.9,78.1,85,30.01,10.0,ENE,5.8,-,N/A,,Partly Cloudy,70,2013-08-16 11:53:00
8:53 AM,84.0,77.0,79,30.02,10.0,East,11.5,-,N/A,,Clear,100,2013-08-16 12:53:00
9:53 AM,84.9,77.0,77,30.03,10.0,East,11.5,-,N/A,,Clear,100,2013-08-16 13:53:00
10:53 AM,84.9,78.1,80,30.04,10.0,East,11.5,-,N/A,,Partly Cloudy,100,2013-08-16 14:53:00
11:53 AM,86.0,78.1,77,30.04,10.0,ESE,10.4,-,N/A,,Partly Cloudy,110,2013-08-16 15:53:00
12:53 PM,86.0,78.1,77,30.02,10.0,East,12.7,-,N/A,,Clear,100,2013-08-16 16:53:00
1:53 PM,86.0,79.0,79,30.01,10.0,East,13.8,-,N/A,,Clear,100,2013-08-16 17:53:00
2:53 PM,88.0,79.0,75,29.99,10.0,East,13.8,-,N/A,,Clear,100,2013-08-16 18:53:00
3:53 PM,88.0,80.1,77,29.98,10.0,East,12.7,-,N/A,,Partly Cloudy,100,2013-08-16 19:53:00
4:53 PM,87.1,79.0,77,29.97,10.0,ESE,16.1,-,N/A,,Scattered Clouds,110,2013-08-16 20:53:00
5:53 PM,87.1,78.1,74,29.98,10.0,ESE,11.5,19.6,N/A,,Clear,110,2013-08-16 21:53:00
6:53 PM,86.0,78.1,77,29.99,10.0,ESE,12.7,-,N/A,,Clear,120,2013-08-16 22:53:00
7:53 PM,84.9,78.1,80,30.00,10.0,ESE,12.7,-,N/A,,Partly Cloudy,110,2013-08-16 23:53:00
8:53 PM,84.0,78.1,82,30.02,10.0,ESE,12.7,-,N/A,,Clear,120,2013-08-17 00:53:00
9:53 PM,84.0,78.1,82,30.03,10.0,ESE,10.4,-,N/A,,Partly Cloudy,120,2013-08-17 01:53:00
10:53 PM,84.0,78.1,82,30.04,10.0,East,12.7,-,N/A,,Partly Cloudy,100,2013-08-17 02:53:00
11:53 PM,84.0,78.1,82,30.03,10.0,ESE,12.7,-,N/A,,Partly Cloudy,110,2013-08-17 03:53:00